createdAt,value
2017-12-21T00:02:12.334Z,52.17
2017-12-21T00:04:38.578Z,46.53
2017-12-21T00:07:04.842Z,48.57
2017-12-21T00:09:31.812Z,41.37
2017-12-21T00:11:58.083Z,41.47
2017-12-21T00:14:24.294Z,44.57
2017-12-21T00:16:50.563Z,49.20
2017-12-21T00:19:16.803Z,45.23
2017-12-21T00:21:43.799Z,40.67
2017-12-21T00:24:10.030Z,38.20
2017-12-21T00:26:36.234Z,47.27
2017-12-21T00:29:02.478Z,32.47
2017-12-21T00:31:28.742Z,35.97
2017-12-21T00:33:54.966Z,37.97
2017-12-21T00:36:21.242Z,32.73
2017-12-21T00:38:47.477Z,38.40
2017-12-21T00:41:13.721Z,36.87
2017-12-21T00:43:39.984Z,37.70
2017-12-21T00:46:11.238Z,44.77
2017-12-21T00:48:37.566Z,38.43
2017-12-21T00:51:03.812Z,38.00
2017-12-21T00:53:30.812Z,34.67
2017-12-21T00:55:57.050Z,41.00
2017-12-21T00:58:23.257Z,41.77
2017-12-21T01:00:49.619Z,49.00
2017-12-21T01:03:15.854Z,42.73
2017-12-21T01:05:42.110Z,38.27
2017-12-21T01:08:08.388Z,41.53
2017-12-21T01:10:34.648Z,44.37
2017-12-21T01:13:01.633Z,41.73
2017-12-21T01:15:27.864Z,45.67
2017-12-21T01:17:54.092Z,49.10
2017-12-21T01:20:20.330Z,47.00
2017-12-21T01:22:46.569Z,50.53
2017-12-21T01:25:12.807Z,48.43
2017-12-21T01:27:39.170Z,42.30
2017-12-21T01:30:06.133Z,41.67
2017-12-21T01:32:32.398Z,39.77
2017-12-21T01:34:58.758Z,39.33
2017-12-21T01:37:25.735Z,34.17
2017-12-21T01:40:00.057Z,44.37
2017-12-21T01:42:27.460Z,42.80
2017-12-21T01:44:53.699Z,38.73
2017-12-21T01:47:20.697Z,37.70
2017-12-21T01:49:46.962Z,36.00
2017-12-21T01:52:13.229Z,35.80
2017-12-21T01:54:39.541Z,30.80
2017-12-21T01:57:05.818Z,25.27
2017-12-21T01:59:32.098Z,26.13
2017-12-21T02:01:58.354Z,24.77
2017-12-21T02:04:24.595Z,26.80
2017-12-21T02:06:50.851Z,28.47
2017-12-21T02:09:17.092Z,27.53
2017-12-21T02:11:43.323Z,23.60
2017-12-21T02:14:09.567Z,23.80
2017-12-21T02:16:35.821Z,22.10
2017-12-21T02:19:02.825Z,19.90
2017-12-21T02:21:29.970Z,26.40
2017-12-21T02:23:56.223Z,22.50
2017-12-21T02:26:23.218Z,21.70
2017-12-21T02:28:49.457Z,19.97
2017-12-21T02:31:15.753Z,18.10
2017-12-21T02:33:42.010Z,22.03
2017-12-21T02:36:08.244Z,20.50
2017-12-21T02:38:34.499Z,21.60
2017-12-21T02:41:00.736Z,14.47
2017-12-21T02:43:27.751Z,14.90
2017-12-21T02:45:54.009Z,19.40
2017-12-21T02:48:21.066Z,14.13
2017-12-21T02:50:48.111Z,16.20
2017-12-21T02:53:14.358Z,19.43
2017-12-21T02:55:40.639Z,18.83
2017-12-21T02:58:06.960Z,23.83
2017-12-21T03:00:33.238Z,21.13
2017-12-21T03:02:59.535Z,19.90
2017-12-21T03:05:25.769Z,20.10
2017-12-21T03:07:52.019Z,18.40
2017-12-21T03:10:18.333Z,25.90
2017-12-21T03:12:45.312Z,26.50
2017-12-21T03:15:11.553Z,23.50
2017-12-21T03:17:37.809Z,16.77
2017-12-21T03:20:04.102Z,25.07
2017-12-21T03:22:30.380Z,19.30
2017-12-21T03:24:56.658Z,20.93
2017-12-21T03:27:22.903Z,22.53
2017-12-21T03:29:49.199Z,23.57
2017-12-21T03:32:15.465Z,20.77
2017-12-21T03:34:41.705Z,25.53
2017-12-21T03:37:07.933Z,24.07
2017-12-21T03:39:34.152Z,24.20
2017-12-21T03:42:00.415Z,22.10
2017-12-21T03:44:26.661Z,19.93
2017-12-21T03:46:53.702Z,20.20
2017-12-21T03:49:20.757Z,22.50
2017-12-21T03:51:47.752Z,28.63
2017-12-21T03:54:14.022Z,23.50
2017-12-21T03:56:40.993Z,22.40
2017-12-21T03:59:07.323Z,23.80
2017-12-21T04:01:33.597Z,27.33
2017-12-21T04:04:00.586Z,21.90
2017-12-21T04:06:26.899Z,23.67
2017-12-21T04:08:53.899Z,28.83
2017-12-21T04:11:20.258Z,25.63
2017-12-21T04:13:46.511Z,20.03
2017-12-21T04:16:13.493Z,27.97
2017-12-21T04:18:39.763Z,26.53
2017-12-21T04:21:05.975Z,29.50
2017-12-21T04:23:32.260Z,23.10
2017-12-21T04:25:58.525Z,21.83
2017-12-21T04:28:24.726Z,25.30
2017-12-21T04:30:50.974Z,26.47
2017-12-21T04:33:17.189Z,32.30
2017-12-21T04:35:46.461Z,28.10
2017-12-21T04:38:14.071Z,25.77
2017-12-21T04:40:44.066Z,22.70
2017-12-21T04:43:10.334Z,30.37
2017-12-21T04:45:36.669Z,29.60
2017-12-21T04:48:02.918Z,24.90
2017-12-21T04:50:29.898Z,21.37
2017-12-21T04:52:56.140Z,27.20
2017-12-21T04:55:22.379Z,28.30
2017-12-21T04:57:48.638Z,27.30
2017-12-21T05:00:15.663Z,31.07
2017-12-21T05:02:41.898Z,33.57
2017-12-21T05:05:08.176Z,29.40
2017-12-21T05:07:34.457Z,33.77
2017-12-21T05:10:00.695Z,35.60
2017-12-21T05:12:26.970Z,35.07
2017-12-21T05:14:53.234Z,36.40
2017-12-21T05:17:20.216Z,36.57
2017-12-21T05:19:46.458Z,42.80
2017-12-21T05:22:12.716Z,39.00
2017-12-21T05:24:38.980Z,44.97
2017-12-21T05:27:05.971Z,47.37
2017-12-21T05:29:32.236Z,52.03
2017-12-21T05:31:58.523Z,54.27
2017-12-21T05:34:24.757Z,49.37
2017-12-21T05:36:51.077Z,43.80
2017-12-21T05:39:24.321Z,41.53
2017-12-21T05:41:50.594Z,34.30
2017-12-21T05:44:23.714Z,40.97
2017-12-21T05:46:49.954Z,47.83
2017-12-21T05:49:16.218Z,39.40
2017-12-21T05:51:43.229Z,32.73
2017-12-21T05:54:09.547Z,45.93
2017-12-21T05:56:35.821Z,40.37
2017-12-21T05:59:02.833Z,35.73
2017-12-21T06:01:29.141Z,31.03
2017-12-21T06:03:55.376Z,29.80
2017-12-21T06:06:21.620Z,33.33
2017-12-21T06:08:47.857Z,32.60
2017-12-21T06:11:14.076Z,26.10
2017-12-21T06:13:40.326Z,32.63
2017-12-21T06:16:06.760Z,31.20
2017-12-21T06:18:33.160Z,28.43
2017-12-21T06:20:59.395Z,28.30
2017-12-21T06:23:25.638Z,27.90
2017-12-21T06:25:52.055Z,25.97
2017-12-21T06:28:18.283Z,21.87
2017-12-21T06:30:44.552Z,23.83
2017-12-21T06:33:10.831Z,32.80
2017-12-21T06:35:37.089Z,25.43
2017-12-21T06:38:04.153Z,21.20
2017-12-21T06:40:31.152Z,20.87
2017-12-21T06:42:57.457Z,21.13
2017-12-21T06:45:23.787Z,18.80
2017-12-21T06:47:50.071Z,19.23
2017-12-21T06:50:16.496Z,17.03
2017-12-21T06:52:43.566Z,21.20
2017-12-21T06:55:10.624Z,25.83
2017-12-21T06:57:36.988Z,22.13
2017-12-21T07:00:03.274Z,29.87
2017-12-21T07:02:29.561Z,18.57
2017-12-21T07:04:55.838Z,17.20
2017-12-21T07:07:22.111Z,21.67
2017-12-21T07:09:48.437Z,18.60
2017-12-21T07:12:14.724Z,18.50
2017-12-21T07:14:41.018Z,19.13
2017-12-21T07:17:07.339Z,19.57
2017-12-21T07:19:33.603Z,21.47
2017-12-21T07:22:00.633Z,20.93
2017-12-21T07:24:27.115Z,23.13
2017-12-21T07:26:53.446Z,24.90
2017-12-21T07:29:19.864Z,20.70
2017-12-21T07:31:46.206Z,23.93
2017-12-21T07:34:12.739Z,23.67
2017-12-21T07:36:39.113Z,27.53
2017-12-21T07:39:05.477Z,23.40
2017-12-21T07:41:31.823Z,26.33
2017-12-21T07:43:58.129Z,27.03
2017-12-21T07:46:25.245Z,23.83
2017-12-21T07:48:51.538Z,24.70
2017-12-21T07:51:17.837Z,23.93
2017-12-21T07:53:44.986Z,24.67
2017-12-21T07:56:12.003Z,28.00
2017-12-21T07:58:38.406Z,30.40
2017-12-21T08:01:04.689Z,33.60
2017-12-21T08:03:31.716Z,32.33
2017-12-21T08:05:58.796Z,30.83
2017-12-21T08:08:25.076Z,30.23
2017-12-21T08:10:51.456Z,28.60
2017-12-21T08:13:18.663Z,26.90
2017-12-21T08:15:45.947Z,30.40
2017-12-21T08:18:12.273Z,30.60
2017-12-21T08:20:39.478Z,30.50
2017-12-21T08:23:05.732Z,27.33
2017-12-21T08:25:32.377Z,23.00
2017-12-21T08:27:59.455Z,26.63
2017-12-21T08:30:25.819Z,26.07
2017-12-21T08:32:52.204Z,24.43
2017-12-21T08:35:18.522Z,26.57
2017-12-21T08:37:44.789Z,26.17
2017-12-21T08:40:11.054Z,20.33
2017-12-21T08:42:37.438Z,21.70
2017-12-21T08:45:03.770Z,21.20
2017-12-21T08:47:30.227Z,21.50
2017-12-21T08:49:56.713Z,27.93
2017-12-21T08:52:22.968Z,21.70
2017-12-21T08:54:50.020Z,18.70
2017-12-21T08:57:16.368Z,16.70
2017-12-21T08:59:42.707Z,18.30
2017-12-21T09:02:09.015Z,19.60
2017-12-21T09:04:35.375Z,17.57
2017-12-21T09:07:01.675Z,16.37
2017-12-21T09:09:27.919Z,18.27
2017-12-21T09:11:54.206Z,18.80
2017-12-21T09:14:20.455Z,14.00
2017-12-21T09:16:46.714Z,17.80
2017-12-21T09:19:13.032Z,19.70
2017-12-21T09:21:39.312Z,17.10
2017-12-21T09:24:05.639Z,16.70
2017-12-21T09:26:31.950Z,19.00
2017-12-21T09:28:58.189Z,17.60
2017-12-21T09:31:24.502Z,18.47
2017-12-21T09:33:50.844Z,20.03
2017-12-21T09:36:17.135Z,17.50
2017-12-21T09:38:43.407Z,17.33
2017-12-21T09:41:09.648Z,19.23
2017-12-21T09:43:36.691Z,19.57
2017-12-21T09:46:03.010Z,16.83
2017-12-21T09:48:29.273Z,20.40
2017-12-21T09:50:57.581Z,11.70
2017-12-21T09:53:26.848Z,11.60
2017-12-21T09:55:53.210Z,11.60
2017-12-21T09:58:19.513Z,10.20
2017-12-21T10:00:46.708Z,18.40
2017-12-21T10:03:13.775Z,9.87
2017-12-21T10:05:40.021Z,10.63
2017-12-21T10:08:06.246Z,12.63
2017-12-21T10:10:32.594Z,16.70
2017-12-21T10:12:58.897Z,11.23
2017-12-21T10:15:26.036Z,11.90
2017-12-21T10:17:52.297Z,12.10
2017-12-21T10:20:18.815Z,11.37
2017-12-21T10:22:45.369Z,17.80
2017-12-21T10:25:11.852Z,11.13
2017-12-21T10:27:40.312Z,12.93
2017-12-21T10:30:06.766Z,16.63
2017-12-21T10:32:33.102Z,14.97
2017-12-21T10:34:59.502Z,13.50
2017-12-21T10:37:25.938Z,12.40
2017-12-21T10:39:53.193Z,13.80
2017-12-21T10:42:19.557Z,14.47
2017-12-21T10:44:45.823Z,14.37
2017-12-21T10:47:12.224Z,13.90
2017-12-21T10:49:38.538Z,15.50
2017-12-21T10:52:04.858Z,13.47
2017-12-21T10:54:31.717Z,15.70
2017-12-21T10:56:57.961Z,15.93
2017-12-21T10:59:24.269Z,15.87
2017-12-21T11:01:51.317Z,15.90
2017-12-21T11:04:19.648Z,15.70
2017-12-21T11:06:46.012Z,16.30
2017-12-21T11:09:12.250Z,15.77
2017-12-21T11:11:38.535Z,18.50
2017-12-21T11:14:04.863Z,17.10
2017-12-21T11:16:31.178Z,14.50
2017-12-21T11:18:57.904Z,16.47
2017-12-21T11:21:25.014Z,16.13
2017-12-21T11:23:51.327Z,17.53
2017-12-21T11:26:17.605Z,16.70
2017-12-21T11:28:44.635Z,20.30
2017-12-21T11:31:11.711Z,18.67
2017-12-21T11:33:38.090Z,19.90
2017-12-21T11:36:04.404Z,17.43
2017-12-21T11:38:30.738Z,13.97
2017-12-21T11:40:57.071Z,17.60
2017-12-21T11:43:23.363Z,14.27
2017-12-21T11:45:50.610Z,15.60
2017-12-21T11:48:16.966Z,13.80
2017-12-21T11:50:43.229Z,17.33
2017-12-21T11:53:09.527Z,19.63
2017-12-21T11:55:35.827Z,16.67
2017-12-21T11:58:02.114Z,18.33
2017-12-21T12:00:28.447Z,22.23
2017-12-21T12:02:54.742Z,16.33
2017-12-21T12:05:21.034Z,16.70
2017-12-21T12:07:48.160Z,17.23
2017-12-21T12:10:14.458Z,19.53
2017-12-21T12:12:40.768Z,18.63
2017-12-21T12:15:07.049Z,17.23
2017-12-21T12:17:33.273Z,19.67
2017-12-21T12:19:59.525Z,18.27
2017-12-21T12:22:25.801Z,16.17
2017-12-21T12:24:52.109Z,15.90
2017-12-21T12:27:19.105Z,18.17
2017-12-21T12:29:46.346Z,15.10
2017-12-21T12:32:12.709Z,23.30
2017-12-21T12:34:39.818Z,14.60
2017-12-21T12:37:06.118Z,17.30
2017-12-21T12:39:32.470Z,19.67
2017-12-21T12:41:59.672Z,17.10
2017-12-21T12:44:25.966Z,16.50
2017-12-21T12:46:52.282Z,16.77
2017-12-21T12:49:18.646Z,19.90
2017-12-21T12:51:44.898Z,15.20
2017-12-21T12:54:11.117Z,16.40
2017-12-21T12:56:37.391Z,17.17
2017-12-21T12:59:03.633Z,16.67
2017-12-21T13:01:29.880Z,14.97
2017-12-21T13:03:56.138Z,16.43
2017-12-21T13:06:22.403Z,16.97
2017-12-21T13:08:49.421Z,18.67
2017-12-21T13:11:15.824Z,25.77
2017-12-21T13:13:42.155Z,15.70
2017-12-21T13:16:08.728Z,16.73
2017-12-21T13:18:35.089Z,16.20
2017-12-21T13:21:01.420Z,17.90
2017-12-21T13:23:27.750Z,21.87
2017-12-21T13:25:54.868Z,16.17
2017-12-21T13:28:21.915Z,15.87
2017-12-21T13:30:48.173Z,12.97
2017-12-21T13:33:14.420Z,14.50
2017-12-21T13:35:40.724Z,15.53
2017-12-21T13:38:07.015Z,16.13
2017-12-21T13:40:33.390Z,17.30
2017-12-21T13:42:59.659Z,16.90
2017-12-21T13:45:26.692Z,22.50
2017-12-21T13:47:53.504Z,19.40
2017-12-21T13:50:19.891Z,17.70
2017-12-21T13:52:46.999Z,16.47
2017-12-21T13:55:14.294Z,15.40
2017-12-21T13:57:41.073Z,19.93
2017-12-21T14:00:07.650Z,18.10
2017-12-21T14:02:34.089Z,17.30
2017-12-21T14:05:01.142Z,16.93
2017-12-21T14:07:28.356Z,17.87
2017-12-21T14:09:54.667Z,19.23
2017-12-21T14:12:20.953Z,16.63
2017-12-21T14:14:47.181Z,18.80
2017-12-21T14:17:14.473Z,17.27
2017-12-21T14:19:40.771Z,15.67
2017-12-21T14:22:07.773Z,15.97
2017-12-21T14:24:34.110Z,18.33
2017-12-21T14:27:00.394Z,18.57
2017-12-21T14:29:27.229Z,18.30
2017-12-21T14:31:53.514Z,16.73
2017-12-21T14:34:19.758Z,18.03
2017-12-21T14:36:46.048Z,17.93
2017-12-21T14:39:12.373Z,21.80
2017-12-21T14:41:39.089Z,18.10
2017-12-21T14:44:06.111Z,17.93
2017-12-21T14:46:32.384Z,19.17
2017-12-21T14:48:58.667Z,23.90
2017-12-21T14:51:25.052Z,22.53
2017-12-21T14:53:52.991Z,21.27
2017-12-21T14:56:19.264Z,17.60
2017-12-21T14:58:45.534Z,15.33
2017-12-21T15:01:12.703Z,14.17
2017-12-21T15:03:40.034Z,19.73
2017-12-21T15:06:07.453Z,15.90
2017-12-21T15:08:33.836Z,16.37
2017-12-21T15:11:00.893Z,15.63
2017-12-21T15:13:27.869Z,15.83
2017-12-21T15:15:54.546Z,14.80
2017-12-21T15:18:20.884Z,16.03
2017-12-21T15:20:47.949Z,18.10
2017-12-21T15:23:15.482Z,13.70
2017-12-21T15:25:42.017Z,14.33
2017-12-21T15:28:08.323Z,14.53
2017-12-21T15:30:34.592Z,16.27
2017-12-21T15:33:01.668Z,15.30
2017-12-21T15:35:27.963Z,12.77
2017-12-21T15:37:54.256Z,20.60
2017-12-21T15:40:20.517Z,12.37
2017-12-21T15:42:46.804Z,16.70
2017-12-21T15:45:13.066Z,14.83
2017-12-21T15:47:39.311Z,15.90
2017-12-21T15:50:06.362Z,13.50
2017-12-21T15:52:33.352Z,15.40
2017-12-21T15:54:59.667Z,17.77
2017-12-21T15:57:25.906Z,18.87
2017-12-21T15:59:52.225Z,15.40
2017-12-21T16:02:18.593Z,12.83
2017-12-21T16:04:44.978Z,17.87
2017-12-21T16:07:11.418Z,22.20
2017-12-21T16:09:37.742Z,20.57
2017-12-21T16:12:04.109Z,16.87
2017-12-21T16:14:30.468Z,17.97
2017-12-21T16:16:56.760Z,15.37
2017-12-21T16:19:23.036Z,19.10
2017-12-21T16:21:49.387Z,21.87
2017-12-21T16:24:15.653Z,24.47
2017-12-21T16:26:41.997Z,24.87
2017-12-21T16:29:08.302Z,16.73
2017-12-21T16:31:34.571Z,14.30
2017-12-21T16:34:01.612Z,22.57
2017-12-21T16:36:27.864Z,23.33
2017-12-21T16:38:54.481Z,24.30
2017-12-21T16:41:20.834Z,17.63
2017-12-21T16:43:47.892Z,17.50
2017-12-21T16:46:14.232Z,14.13
2017-12-21T16:48:40.542Z,19.43
2017-12-21T16:51:07.668Z,15.70
2017-12-21T16:53:34.004Z,13.30
2017-12-21T16:56:01.581Z,12.03
2017-12-21T16:58:27.968Z,23.07
2017-12-21T17:00:54.314Z,15.87
2017-12-21T17:03:20.644Z,23.67
2017-12-21T17:05:46.947Z,17.30
2017-12-21T17:08:13.359Z,19.87
2017-12-21T17:10:39.667Z,22.27
2017-12-21T17:13:06.003Z,22.63
2017-12-21T17:15:32.322Z,24.57
2017-12-21T17:17:58.656Z,19.37
2017-12-21T17:20:24.924Z,19.57
2017-12-21T17:22:51.449Z,20.20
2017-12-21T17:25:17.868Z,17.00
2017-12-21T17:27:44.295Z,21.60
2017-12-21T17:30:10.671Z,23.00
2017-12-21T17:32:37.037Z,19.07
2017-12-21T17:35:03.459Z,17.70
2017-12-21T17:37:29.874Z,14.90
2017-12-21T17:39:56.176Z,18.57
2017-12-21T17:42:22.474Z,19.00
2017-12-21T17:44:48.959Z,17.77
2017-12-21T17:47:15.652Z,15.97
2017-12-21T17:49:42.068Z,18.20
2017-12-21T17:52:09.208Z,20.83
2017-12-21T17:54:35.618Z,23.57
2017-12-21T17:57:02.675Z,18.90
2017-12-21T17:59:29.116Z,18.10
2017-12-21T18:01:55.920Z,21.97
2017-12-21T18:04:22.258Z,19.23
2017-12-21T18:06:48.587Z,24.50
2017-12-21T18:09:14.890Z,15.60
2017-12-21T18:11:42.094Z,16.77
2017-12-21T18:14:08.601Z,16.73
2017-12-21T18:16:35.227Z,19.53
2017-12-21T18:19:01.582Z,26.60
2017-12-21T18:21:28.156Z,18.10
2017-12-21T18:23:54.686Z,21.33
2017-12-21T18:26:21.406Z,18.00
2017-12-21T18:28:48.097Z,23.10
2017-12-21T18:31:14.506Z,29.27
2017-12-21T18:33:41.634Z,20.00
2017-12-21T18:36:08.058Z,19.67
2017-12-21T18:38:34.298Z,24.33
2017-12-21T18:41:01.324Z,23.13
2017-12-21T18:43:29.554Z,26.37
2017-12-21T18:45:56.366Z,18.93
2017-12-21T18:48:22.787Z,17.27
2017-12-21T18:50:49.894Z,23.00
2017-12-21T18:53:16.143Z,21.70
2017-12-21T18:55:42.483Z,21.57
2017-12-21T18:58:08.843Z,22.47
2017-12-21T19:00:35.208Z,11.53
2017-12-21T19:03:01.677Z,21.77
2017-12-21T19:05:28.715Z,19.60
2017-12-21T19:07:55.111Z,19.03
2017-12-21T19:10:21.342Z,21.50
2017-12-21T19:12:47.619Z,18.43
2017-12-21T19:15:14.654Z,27.77
2017-12-21T19:17:40.919Z,19.77
2017-12-21T19:20:08.082Z,23.80
2017-12-21T19:22:34.404Z,17.33
2017-12-21T19:25:00.891Z,22.83
2017-12-21T19:27:27.955Z,27.97
2017-12-21T19:29:54.260Z,33.50
2017-12-21T19:32:21.683Z,20.27
2017-12-21T19:34:48.074Z,21.33
2017-12-21T19:37:14.883Z,20.73
2017-12-21T19:39:41.346Z,16.60
2017-12-21T19:42:07.665Z,22.00
2017-12-21T19:44:33.985Z,19.57
2017-12-21T19:47:00.370Z,30.60
2017-12-21T19:49:26.734Z,18.87
2017-12-21T19:51:53.091Z,23.37
2017-12-21T19:54:20.280Z,14.17
2017-12-21T19:56:48.554Z,18.20
2017-12-21T19:59:15.224Z,19.97
2017-12-21T20:01:41.615Z,21.90
2017-12-21T20:04:07.898Z,18.90
2017-12-21T20:06:34.662Z,20.67
2017-12-21T20:09:01.035Z,23.77
2017-12-21T20:11:27.312Z,22.60
2017-12-21T20:13:54.360Z,23.60
2017-12-21T20:16:21.365Z,19.40
2017-12-21T20:18:47.693Z,22.40
2017-12-21T20:21:14.060Z,19.97
2017-12-21T20:23:46.864Z,23.80
2017-12-21T20:26:13.862Z,24.13
2017-12-21T20:28:40.149Z,26.20
2017-12-21T20:31:07.312Z,22.63
2017-12-21T20:33:34.967Z,27.63
2017-12-21T20:36:01.266Z,28.93
2017-12-21T20:38:27.546Z,33.70
2017-12-21T20:40:54.727Z,29.03
2017-12-21T20:43:21.005Z,35.70
2017-12-21T20:45:51.835Z,39.63
2017-12-21T20:48:18.867Z,36.83
2017-12-21T20:50:45.946Z,31.40
2017-12-21T20:53:23.393Z,37.23
2017-12-21T20:55:50.796Z,32.20
2017-12-21T20:58:21.041Z,40.93
2017-12-21T21:00:48.054Z,46.30
2017-12-21T21:03:14.436Z,34.43
2017-12-21T21:05:42.513Z,38.20
2017-12-21T21:08:10.477Z,37.57
2017-12-21T21:10:37.816Z,51.33
2017-12-21T21:13:05.206Z,45.53
2017-12-21T21:15:32.871Z,45.13
2017-12-21T21:17:59.133Z,39.87
2017-12-21T21:20:26.721Z,43.77
2017-12-21T21:22:54.747Z,53.33
2017-12-21T21:25:21.081Z,50.73
2017-12-21T21:27:48.463Z,59.07
2017-12-21T21:30:14.864Z,54.53
2017-12-21T21:32:41.126Z,46.83
2017-12-21T21:35:07.477Z,58.13
2017-12-21T21:37:34.716Z,61.37
2017-12-21T21:40:00.981Z,51.87
2017-12-21T21:42:27.348Z,60.80
2017-12-21T21:44:53.603Z,56.90
2017-12-21T21:47:19.900Z,64.87
2017-12-21T21:49:46.170Z,54.23
2017-12-21T21:52:12.494Z,48.23
2017-12-21T21:54:38.758Z,54.37
2017-12-21T21:57:05.812Z,56.00
2017-12-21T21:59:32.854Z,59.27
2017-12-21T22:01:59.902Z,59.60
2017-12-21T22:04:26.903Z,58.20
2017-12-21T22:06:53.266Z,66.50
2017-12-21T22:09:19.623Z,53.17
2017-12-21T22:11:46.603Z,53.70
2017-12-21T22:14:12.902Z,57.73
2017-12-21T22:16:39.796Z,55.70
2017-12-21T22:19:06.198Z,52.80
2017-12-21T22:21:32.583Z,60.50
2017-12-21T22:23:59.764Z,56.63
2017-12-21T22:26:26.045Z,54.23
2017-12-21T22:28:52.292Z,61.40
2017-12-21T22:31:19.315Z,58.53
2017-12-21T22:33:45.606Z,57.07
2017-12-21T22:36:12.475Z,52.73
2017-12-21T22:38:38.775Z,53.43
2017-12-21T22:41:05.013Z,54.07
2017-12-21T22:43:31.294Z,64.00
2017-12-21T22:45:57.534Z,52.83
2017-12-21T22:48:24.663Z,53.30
2017-12-21T22:50:51.051Z,48.07
2017-12-21T22:53:17.373Z,51.90
2017-12-21T22:55:43.735Z,51.87
2017-12-21T22:58:10.016Z,53.63
2017-12-21T23:00:37.031Z,62.47
2017-12-21T23:03:03.334Z,44.10
2017-12-21T23:05:30.383Z,51.23
2017-12-21T23:07:58.420Z,52.83
2017-12-21T23:10:24.764Z,45.90
2017-12-21T23:12:51.155Z,41.43
2017-12-21T23:15:18.233Z,49.63
2017-12-21T23:17:44.670Z,41.47
2017-12-21T23:20:10.898Z,39.57
2017-12-21T23:22:37.279Z,43.53
2017-12-21T23:25:03.525Z,35.83
2017-12-21T23:27:29.793Z,34.37
2017-12-21T23:29:56.055Z,36.57
2017-12-21T23:32:22.282Z,30.90
2017-12-21T23:34:48.569Z,40.97
2017-12-21T23:37:14.852Z,34.83
2017-12-21T23:39:41.104Z,29.67
2017-12-21T23:42:14.507Z,30.77
2017-12-21T23:44:40.774Z,29.50
2017-12-21T23:47:07.064Z,35.57
2017-12-21T23:49:33.380Z,29.03
2017-12-21T23:51:59.682Z,24.53
2017-12-21T23:54:26.059Z,35.80
2017-12-21T23:56:52.301Z,28.77
2017-12-21T23:59:25.544Z,30.07
